Time;durP1;ratioP1;P1;durP2;ratioP2;P2;SDS_P1;SDS_P2;PMS_P1;PMS_P2;Temp;Humidity;BMP_temperature;BMP_pressure;BME280_temperature;BME280_humidity;BME280_pressure;Samples;Min_cycle;Max_cycle;Signal;HPM_P1;HPM_P2
2021/12/21 00:04:12;;;;;;;10.67;7.10;;;2.80;99.90;;;;;;10506285;28;20192;-80
2021/12/21 00:09:14;;;;;;;10.50;6.70;;;2.80;99.90;;;;;;10502937;28;20227;-79
2021/12/21 00:14:25;;;;;;;10.20;7.53;;;2.80;99.90;;;;;;10502584;28;20215;-80
2021/12/21 00:19:50;;;;;;;11.17;8.53;;;2.70;99.90;;;;;;10502906;28;20211;-79
2021/12/21 00:24:52;;;;;;;7.77;6.97;;;2.70;99.90;;;;;;10501211;28;20223;-79
2021/12/21 00:29:55;;;;;;;10.07;7.00;;;2.70;99.90;;;;;;10502239;28;20299;-79
2021/12/21 00:34:57;;;;;;;8.40;6.73;;;2.60;99.90;;;;;;10485524;28;20204;-79
2021/12/21 00:40:00;;;;;;;10.43;6.50;;;2.60;99.90;;;;;;10501136;28;20576;-79
2021/12/21 00:45:04;;;;;;;8.80;6.40;;;2.60;99.90;;;;;;10504597;28;20231;-79
2021/12/21 00:50:08;;;;;;;8.47;6.70;;;2.60;99.90;;;;;;10500858;28;20220;-79
2021/12/21 00:55:11;;;;;;;9.03;5.97;;;2.60;99.90;;;;;;10501355;28;20199;-80
2021/12/21 01:00:16;;;;;;;7.70;5.90;;;2.60;99.90;;;;;;10500415;28;20639;-80
2021/12/21 01:05:25;;;;;;;7.60;5.97;;;2.60;99.90;;;;;;10501330;28;20196;-79
2021/12/21 01:16:01;;;;;;;8.90;6.40;;;2.50;99.90;;;;;;10481649;28;20426;-80
2021/12/21 01:21:09;;;;;;;8.90;6.10;;;2.50;99.90;;;;;;10499721;28;20192;-80
2021/12/21 01:26:18;;;;;;;7.37;5.43;;;2.50;99.90;;;;;;10499300;28;20299;-79
2021/12/21 01:31:29;;;;;;;7.63;5.53;;;2.40;99.90;;;;;;10483420;28;20232;-81
2021/12/21 01:36:37;;;;;;;12.50;5.50;;;2.40;99.90;;;;;;10500187;28;20306;-81
2021/12/21 01:41:46;;;;;;;7.47;6.30;;;2.40;99.90;;;;;;10501894;28;20189;-80
2021/12/21 01:52:22;;;;;;;9.30;5.77;;;2.40;99.90;;;;;;10476407;28;20265;-81
2021/12/21 01:57:24;;;;;;;10.03;6.20;;;2.30;99.90;;;;;;10501026;28;20251;-80
2021/12/21 02:02:28;;;;;;;6.33;5.50;;;2.30;99.90;;;;;;10497278;28;20192;-80
2021/12/21 02:07:30;;;;;;;8.17;5.77;;;2.30;99.90;;;;;;10501032;28;20250;-80
2021/12/21 02:12:33;;;;;;;7.30;5.67;;;2.20;99.90;;;;;;10502007;28;20222;-80
2021/12/21 02:23:05;;;;;;;7.40;6.70;;;2.20;99.90;;;;;;10499861;28;20600;-80
2021/12/21 02:28:22;;;;;;;10.33;6.50;;;2.10;99.90;;;;;;10504515;28;20225;-80
2021/12/21 02:33:26;;;;;;;6.83;6.13;;;2.10;99.90;;;;;;10505272;28;20200;-80
2021/12/21 02:38:30;;;;;;;7.23;6.30;;;2.10;99.90;;;;;;10505906;28;20220;-78
2021/12/21 02:43:35;;;;;;;7.47;6.63;;;2.00;99.90;;;;;;10504663;28;20222;-79
2021/12/21 02:48:37;;;;;;;8.43;6.70;;;2.00;99.90;;;;;;10505491;28;20324;-79
2021/12/21 02:53:41;;;;;;;7.80;6.03;;;2.00;99.90;;;;;;10507762;28;20207;-80
2021/12/21 02:58:44;;;;;;;7.77;6.30;;;2.00;99.90;;;;;;10505637;28;20221;-79
2021/12/21 03:03:46;;;;;;;8.97;6.13;;;2.00;99.90;;;;;;10504685;28;20209;-80
2021/12/21 03:08:56;;;;;;;7.03;6.10;;;2.00;99.90;;;;;;10506036;28;20260;-79
2021/12/21 03:14:08;;;;;;;8.53;6.97;;;2.00;99.90;;;;;;10505149;28;20196;-79
2021/12/21 03:19:12;;;;;;;8.63;6.70;;;1.90;99.90;;;;;;10505848;28;20236;-79
2021/12/21 03:24:15;;;;;;;6.23;5.60;;;2.00;99.90;;;;;;10503599;28;20199;-78
2021/12/21 03:29:17;;;;;;;9.50;5.70;;;1.90;99.90;;;;;;10503014;28;20221;-79
2021/12/21 03:34:20;;;;;;;8.43;5.60;;;1.90;99.90;;;;;;10505203;28;20200;-79
2021/12/21 03:39:23;;;;;;;7.63;5.47;;;1.90;99.90;;;;;;10504228;28;20296;-79
2021/12/21 03:44:27;;;;;;;8.50;5.50;;;1.90;99.90;;;;;;10504362;28;20216;-79
2021/12/21 03:54:53;;;;;;;7.80;5.57;;;1.80;99.90;;;;;;10503068;28;20208;-79
2021/12/21 03:59:56;;;;;;;7.40;5.70;;;1.80;99.90;;;;;;10502440;28;20212;-79
2021/12/21 04:04:59;;;;;;;9.40;5.50;;;1.80;99.90;;;;;;10502071;28;20576;-79
2021/12/21 04:10:06;;;;;;;7.77;5.13;;;1.80;99.90;;;;;;10501242;28;20220;-79
2021/12/21 04:15:09;;;;;;;6.97;5.57;;;1.80;99.90;;;;;;10501768;28;20242;-79
2021/12/21 04:20:12;;;;;;;5.60;5.00;;;1.80;99.90;;;;;;10502271;28;20213;-79
2021/12/21 04:25:15;;;;;;;7.30;5.40;;;1.80;99.90;;;;;;10502698;28;20621;-80
2021/12/21 04:30:18;;;;;;;7.20;5.70;;;1.70;99.90;;;;;;10501182;28;20231;-79
2021/12/21 04:35:20;;;;;;;6.47;5.80;;;1.70;99.90;;;;;;10500889;28;20698;-80
2021/12/21 04:40:37;;;;;;;6.47;5.63;;;1.70;99.90;;;;;;10501063;28;20269;-79
2021/12/21 04:45:39;;;;;;;5.83;5.30;;;1.70;99.90;;;;;;10500936;28;20215;-79
2021/12/21 04:50:42;;;;;;;9.60;6.33;;;1.70;99.90;;;;;;10499688;28;20223;-79
2021/12/21 04:55:46;;;;;;;7.23;6.40;;;1.70;99.90;;;;;;10501492;28;20204;-79
2021/12/21 05:00:49;;;;;;;7.37;5.37;;;1.70;99.90;;;;;;10501554;28;20629;-79
2021/12/21 05:05:51;;;;;;;5.93;5.40;;;1.70;99.90;;;;;;10501586;28;20216;-79
2021/12/21 05:10:59;;;;;;;8.60;6.80;;;1.70;99.90;;;;;;10500787;28;20286;-79
2021/12/21 05:16:01;;;;;;;6.27;5.63;;;1.70;99.90;;;;;;10501590;28;20219;-78
2021/12/21 05:21:04;;;;;;;8.43;6.33;;;1.70;99.90;;;;;;10501528;28;20188;-79
2021/12/21 05:26:07;;;;;;;8.80;7.00;;;1.70;99.90;;;;;;10501060;28;20551;-79
2021/12/21 05:31:09;;;;;;;8.73;5.83;;;1.60;99.90;;;;;;10499633;28;20321;-79
2021/12/21 05:36:11;;;;;;;9.20;6.57;;;1.60;99.90;;;;;;10501569;28;20212;-79
2021/12/21 05:41:22;;;;;;;7.87;6.00;;;1.60;99.90;;;;;;10501290;28;20718;-79
2021/12/21 05:46:24;;;;;;;7.40;5.67;;;1.60;99.90;;;;;;10501811;28;20209;-79
2021/12/21 05:51:27;;;;;;;8.37;5.63;;;1.60;99.90;;;;;;10502542;28;20220;-79
2021/12/21 05:56:30;;;;;;;6.60;6.00;;;1.60;99.90;;;;;;10499410;28;20593;-77
2021/12/21 06:01:33;;;;;;;7.13;6.40;;;1.60;99.90;;;;;;10498089;28;20305;-78
2021/12/21 06:06:35;;;;;;;7.10;6.40;;;1.50;99.90;;;;;;10498215;28;20739;-78
2021/12/21 06:11:45;;;;;;;9.83;6.63;;;1.50;99.90;;;;;;10498011;28;20223;-78
2021/12/21 06:27:31;;;;;;;6.07;5.23;;;1.40;99.90;;;;;;10496961;28;20219;-78
2021/12/21 06:32:34;;;;;;;8.17;6.77;;;1.40;99.90;;;;;;10499484;28;20215;-79
2021/12/21 06:37:36;;;;;;;6.83;6.00;;;1.40;99.90;;;;;;10496514;28;20209;-78
2021/12/21 06:42:40;;;;;;;6.00;4.60;;;1.40;99.90;;;;;;10497538;28;20223;-78
2021/12/21 06:53:02;;;;;;;6.87;6.00;;;1.40;99.90;;;;;;10498175;28;20215;-78
2021/12/21 06:58:06;;;;;;;8.17;6.30;;;1.40;99.90;;;;;;10496266;28;20220;-77
2021/12/21 07:03:08;;;;;;;7.37;6.13;;;1.40;99.90;;;;;;10497999;28;20193;-77
2021/12/21 07:08:15;;;;;;;7.83;5.60;;;1.30;99.90;;;;;;10480016;28;20219;-79
2021/12/21 07:18:39;;;;;;;9.10;8.20;;;1.30;99.90;;;;;;10503833;28;20218;-78
2021/12/21 07:23:41;;;;;;;7.70;6.80;;;1.30;99.90;;;;;;10504757;28;20193;-78
2021/12/21 07:28:45;;;;;;;7.50;6.17;;;1.20;99.90;;;;;;10505216;28;20216;-78
2021/12/21 07:33:47;;;;;;;12.20;10.90;;;1.30;99.90;;;;;;10505364;28;20223;-77
2021/12/21 07:38:49;;;;;;;7.30;6.37;;;1.30;99.90;;;;;;10503642;28;20242;-77
2021/12/21 07:43:53;;;;;;;7.80;5.67;;;1.30;99.90;;;;;;10504064;28;20578;-78
2021/12/21 07:48:55;;;;;;;5.43;4.97;;;1.30;99.90;;;;;;10505991;28;20240;-78
2021/12/21 07:53:58;;;;;;;7.40;6.43;;;1.40;99.90;;;;;;10504341;28;20288;-78
2021/12/21 07:59:02;;;;;;;6.67;5.50;;;1.40;99.90;;;;;;10502642;28;20220;-78
2021/12/21 08:04:07;;;;;;;6.13;5.53;;;1.40;99.90;;;;;;10502027;28;20189;-78
2021/12/21 08:09:09;;;;;;;8.30;6.97;;;1.40;99.90;;;;;;10502019;28;20216;-79
2021/12/21 08:14:13;;;;;;;7.07;6.37;;;1.40;99.90;;;;;;10485344;28;20288;-78
2021/12/21 08:19:15;;;;;;;9.03;6.17;;;1.50;99.90;;;;;;10504706;28;20219;-78
2021/12/21 08:24:17;;;;;;;10.17;6.20;;;1.50;99.90;;;;;;10503094;28;20276;-78
2021/12/21 08:29:20;;;;;;;6.60;6.00;;;1.50;99.90;;;;;;10501987;28;20216;-78
2021/12/21 08:34:23;;;;;;;9.60;7.93;;;1.50;99.90;;;;;;10486207;28;20200;-77
2021/12/21 08:39:26;;;;;;;5.83;5.10;;;1.50;99.90;;;;;;10502438;28;20247;-78
2021/12/21 08:44:30;;;;;;;7.03;5.53;;;1.50;99.90;;;;;;10501666;28;20204;-78
2021/12/21 08:49:33;;;;;;;6.37;5.80;;;1.50;99.90;;;;;;10501440;28;20212;-78
2021/12/21 08:54:35;;;;;;;8.07;7.27;;;1.60;99.90;;;;;;10504780;28;20197;-78
2021/12/21 08:59:38;;;;;;;7.37;6.67;;;1.60;99.90;;;;;;10504115;28;20299;-78
2021/12/21 09:04:40;;;;;;;9.87;7.90;;;1.70;99.90;;;;;;10504655;28;20242;-79
2021/12/21 09:09:43;;;;;;;9.37;7.27;;;1.80;99.90;;;;;;10504100;28;20269;-78
2021/12/21 09:14:46;;;;;;;9.30;8.20;;;1.80;99.90;;;;;;10502300;28;20639;-78
2021/12/21 09:19:48;;;;;;;9.03;8.10;;;2.00;99.90;;;;;;10502543;28;20249;-78
2021/12/21 09:24:50;;;;;;;9.27;8.27;;;2.00;99.90;;;;;;10503666;28;20267;-79
2021/12/21 09:29:54;;;;;;;10.10;8.80;;;2.10;99.90;;;;;;10505555;28;20211;-79
2021/12/21 09:34:56;;;;;;;11.83;8.87;;;2.20;99.90;;;;;;10502314;28;20539;-78
2021/12/21 09:39:58;;;;;;;10.10;9.03;;;2.30;99.90;;;;;;10499373;28;20216;-78
2021/12/21 09:45:02;;;;;;;11.10;9.90;;;2.30;99.90;;;;;;10499526;28;20660;-78
2021/12/21 09:50:07;;;;;;;13.70;9.80;;;2.40;99.90;;;;;;10497172;28;20236;-78
2021/12/21 09:55:11;;;;;;;12.80;10.97;;;2.50;99.90;;;;;;10497704;28;20195;-77
2021/12/21 10:00:19;;;;;;;15.77;11.50;;;2.60;99.90;;;;;;10480830;28;20224;-78
2021/12/21 10:05:24;;;;;;;18.13;13.30;;;2.80;99.90;;;;;;10498141;28;20564;-77
2021/12/21 10:10:26;;;;;;;15.00;12.90;;;2.90;99.90;;;;;;10498727;28;20239;-78
2021/12/21 10:15:30;;;;;;;12.90;11.50;;;3.00;99.90;;;;;;10496915;28;20192;-78
2021/12/21 10:20:34;;;;;;;14.30;12.10;;;3.00;99.90;;;;;;10498959;28;20657;-79
2021/12/21 10:25:41;;;;;;;15.83;12.27;;;3.10;99.90;;;;;;10497589;28;20196;-78
2021/12/21 10:30:53;;;;;;;14.87;12.57;;;3.20;99.90;;;;;;10497396;28;20216;-77
2021/12/21 10:35:57;;;;;;;16.33;10.83;;;3.30;99.90;;;;;;10500214;28;20211;-79
2021/12/21 10:41:08;;;;;;;17.03;11.27;;;3.30;99.90;;;;;;10498062;28;20216;-79
2021/12/21 10:46:12;;;;;;;11.83;10.23;;;3.40;99.90;;;;;;10482599;28;20219;-79
2021/12/21 10:51:16;;;;;;;15.70;11.00;;;3.50;99.90;;;;;;10506211;28;20213;-78
2021/12/21 10:56:19;;;;;;;12.30;10.20;;;3.50;99.90;;;;;;10506203;28;20224;-79
2021/12/21 11:01:27;;;;;;;10.87;9.93;;;3.50;99.90;;;;;;10506098;28;20218;-79
2021/12/21 11:06:33;;;;;;;11.80;9.23;;;3.50;99.90;;;;;;10507333;28;20223;-79
2021/12/21 11:11:44;;;;;;;11.53;10.10;;;3.60;99.90;;;;;;10506373;28;20209;-80
2021/12/21 11:16:49;;;;;;;9.60;8.07;;;3.70;99.90;;;;;;10505054;28;20215;-79
2021/12/21 11:21:52;;;;;;;12.67;9.10;;;3.70;99.90;;;;;;10506888;28;20188;-79
2021/12/21 11:26:55;;;;;;;8.83;7.90;;;3.80;99.90;;;;;;10503599;28;20254;-78
2021/12/21 11:32:02;;;;;;;11.33;7.93;;;3.90;99.90;;;;;;10503974;28;20217;-79
2021/12/21 11:37:23;;;;;;;10.40;7.80;;;3.90;99.90;;;;;;10503654;28;20220;-79
2021/12/21 11:42:34;;;;;;;12.57;8.07;;;4.00;99.90;;;;;;10504750;28;20193;-78
2021/12/21 11:47:42;;;;;;;9.43;7.67;;;4.00;99.90;;;;;;10503547;28;20236;-78
2021/12/21 11:52:46;;;;;;;8.50;7.60;;;4.10;99.90;;;;;;10504237;28;20216;-78
2021/12/21 11:57:52;;;;;;;9.60;8.00;;;4.20;99.90;;;;;;10503154;28;20240;-79
2021/12/21 12:03:09;;;;;;;8.70;7.80;;;4.20;99.90;;;;;;10505479;28;20191;-79
2021/12/21 12:08:13;;;;;;;15.30;8.00;;;4.30;99.90;;;;;;10507576;28;20212;-79
2021/12/21 12:13:17;;;;;;;7.27;6.53;;;4.30;99.90;;;;;;10506877;28;20286;-79
2021/12/21 12:18:22;;;;;;;10.23;7.10;;;4.40;99.90;;;;;;10508217;28;20215;-79
2021/12/21 12:23:25;;;;;;;8.43;7.60;;;4.40;99.90;;;;;;10507155;28;20185;-79
2021/12/21 12:28:33;;;;;;;7.50;6.77;;;4.50;99.80;;;;;;10503431;28;20223;-79
2021/12/21 12:33:42;;;;;;;7.53;6.80;;;4.50;99.90;;;;;;10505401;28;20640;-79
2021/12/21 12:38:47;;;;;;;7.43;6.13;;;4.60;99.70;;;;;;10503383;28;20235;-79
2021/12/21 12:43:49;;;;;;;7.30;6.50;;;4.60;99.90;;;;;;10501102;28;20263;-79
2021/12/21 12:48:52;;;;;;;6.80;6.10;;;4.60;99.70;;;;;;10501813;28;20255;-80
2021/12/21 12:53:55;;;;;;;7.13;6.47;;;4.70;99.80;;;;;;10502525;28;20240;-79
2021/12/21 12:59:00;;;;;;;6.30;5.70;;;4.70;98.70;;;;;;10503062;28;20273;-79
2021/12/21 13:04:09;;;;;;;7.50;6.07;;;4.70;98.90;;;;;;10501698;28;20188;-79
2021/12/21 13:09:13;;;;;;;7.30;4.93;;;4.70;99.60;;;;;;10502348;28;20204;-79
2021/12/21 13:14:18;;;;;;;5.73;5.23;;;4.80;99.00;;;;;;10502130;28;20212;-80
2021/12/21 13:19:23;;;;;;;5.87;4.63;;;4.80;99.40;;;;;;10499705;28;20212;-79
2021/12/21 13:24:29;;;;;;;5.10;4.60;;;4.80;98.80;;;;;;10501788;28;20641;-79
2021/12/21 13:29:35;;;;;;;6.33;4.77;;;4.80;98.00;;;;;;10499990;28;20226;-80
2021/12/21 13:34:40;;;;;;;4.73;4.33;;;4.80;98.40;;;;;;10501515;28;20304;-80
2021/12/21 13:39:45;;;;;;;6.43;4.33;;;4.90;98.60;;;;;;10499896;28;20208;-80
2021/12/21 13:44:50;;;;;;;6.10;5.50;;;4.90;99.00;;;;;;10500040;28;20268;-80
2021/12/21 13:49:56;;;;;;;5.17;3.80;;;4.90;98.90;;;;;;10500860;28;20443;-80
2021/12/21 13:54:58;;;;;;;5.73;5.23;;;4.90;97.50;;;;;;10500150;28;20242;-79
2021/12/21 14:00:07;;;;;;;5.90;5.30;;;4.90;99.00;;;;;;10499874;28;20304;-79
2021/12/21 14:05:17;;;;;;;7.10;6.40;;;4.90;98.60;;;;;;10502015;28;20192;-80
2021/12/21 14:10:21;;;;;;;5.97;5.37;;;4.90;99.00;;;;;;10500662;28;20688;-80
2021/12/21 14:15:34;;;;;;;5.13;4.63;;;4.90;97.80;;;;;;10501533;28;20752;-80
2021/12/21 14:20:37;;;;;;;7.33;5.27;;;4.90;96.80;;;;;;10500827;28;20260;-80
2021/12/21 14:25:40;;;;;;;4.93;4.57;;;4.70;98.10;;;;;;10506047;28;20232;-79
2021/12/21 14:30:42;;;;;;;4.80;4.40;;;4.70;97.30;;;;;;10495651;28;20223;-79
2021/12/21 14:35:45;;;;;;;7.10;6.00;;;4.60;97.60;;;;;;10511905;28;20224;-79
2021/12/21 14:40:50;;;;;;;6.67;6.03;;;4.60;97.10;;;;;;10508241;28;20181;-79
2021/12/21 14:45:53;;;;;;;5.90;5.47;;;4.40;97.70;;;;;;10505691;28;20649;-79
2021/12/21 14:51:08;;;;;;;6.90;5.87;;;4.40;98.00;;;;;;10506547;28;20212;-80
2021/12/21 14:56:14;;;;;;;6.00;5.50;;;4.20;98.00;;;;;;10505251;28;20265;-79
2021/12/21 15:01:16;;;;;;;9.00;6.40;;;4.10;98.00;;;;;;10507155;28;20203;-80
2021/12/21 15:06:19;;;;;;;8.47;7.40;;;4.00;98.20;;;;;;10505754;28;20212;-78
2021/12/21 15:11:25;;;;;;;6.90;6.20;;;3.90;98.30;;;;;;10506011;28;20208;-80
2021/12/21 15:16:27;;;;;;;6.87;5.60;;;3.70;98.20;;;;;;10505652;28;20533;-79
2021/12/21 15:21:31;;;;;;;7.07;6.40;;;3.60;98.80;;;;;;10505072;28;20199;-80
2021/12/21 15:26:33;;;;;;;6.80;6.03;;;3.60;99.10;;;;;;10504920;28;20219;-79
2021/12/21 15:31:36;;;;;;;6.83;6.33;;;3.50;99.20;;;;;;10505861;28;20239;-79
2021/12/21 15:36:39;;;;;;;7.50;6.80;;;3.40;98.60;;;;;;10505143;28;20248;-79
2021/12/21 15:41:41;;;;;;;7.20;6.40;;;3.40;98.80;;;;;;10510218;28;20542;-79
2021/12/21 15:46:48;;;;;;;7.80;7.00;;;3.30;99.30;;;;;;10506192;28;20212;-78
2021/12/21 15:51:52;;;;;;;10.90;8.20;;;3.20;99.50;;;;;;10505463;28;20228;-79
2021/12/21 15:56:54;;;;;;;10.30;7.47;;;3.10;99.10;;;;;;10505427;28;20216;-79
2021/12/21 16:01:57;;;;;;;8.77;7.40;;;3.00;99.40;;;;;;10504956;28;20195;-79
2021/12/21 16:07:01;;;;;;;7.90;7.10;;;3.00;99.50;;;;;;10505795;28;20212;-79
2021/12/21 16:12:04;;;;;;;11.40;7.50;;;3.00;99.90;;;;;;10505778;28;20641;-79
2021/12/21 16:17:06;;;;;;;8.30;7.50;;;2.90;99.60;;;;;;10505407;28;20231;-79
2021/12/21 16:22:10;;;;;;;10.87;9.60;;;2.90;99.40;;;;;;10507300;28;20246;-79
2021/12/21 16:27:12;;;;;;;9.73;8.83;;;2.80;99.60;;;;;;10504762;28;20236;-79
2021/12/21 16:32:15;;;;;;;13.63;12.23;;;2.80;99.80;;;;;;10504502;28;20681;-79
2021/12/21 16:37:18;;;;;;;9.13;8.13;;;2.80;99.80;;;;;;10505872;28;20242;-79
2021/12/21 16:42:20;;;;;;;12.73;8.53;;;2.70;99.60;;;;;;10502333;28;20280;-80
2021/12/21 16:47:22;;;;;;;10.50;9.37;;;2.70;99.50;;;;;;10501103;28;20711;-80
2021/12/21 16:52:27;;;;;;;7.77;7.03;;;2.60;99.60;;;;;;10502344;28;20299;-79
2021/12/21 16:57:29;;;;;;;9.30;7.73;;;2.60;99.60;;;;;;10501758;28;20220;-79
2021/12/21 17:02:31;;;;;;;10.13;8.57;;;2.60;99.90;;;;;;10501451;28;20223;-79
2021/12/21 17:07:35;;;;;;;10.20;8.40;;;2.60;99.90;;;;;;10499988;28;20283;-78
2021/12/21 17:12:38;;;;;;;10.87;9.77;;;2.60;99.90;;;;;;10500030;28;20291;-79
2021/12/21 17:17:41;;;;;;;10.17;9.27;;;2.60;99.90;;;;;;10499126;28;20218;-79
2021/12/21 17:22:45;;;;;;;11.37;10.27;;;2.60;99.90;;;;;;10499894;28;20268;-80
2021/12/21 17:27:47;;;;;;;9.23;8.53;;;2.70;99.90;;;;;;10498538;28;20273;-79
2021/12/21 17:32:49;;;;;;;9.13;8.33;;;2.70;99.90;;;;;;10498777;28;20693;-79
2021/12/21 17:37:58;;;;;;;11.13;10.13;;;2.70;99.90;;;;;;10498593;28;20227;-79
2021/12/21 17:43:00;;;;;;;10.10;9.13;;;2.70;99.90;;;;;;10483042;28;20200;-79
2021/12/21 17:48:03;;;;;;;9.97;8.90;;;2.70;99.90;;;;;;10499028;28;20230;-79
2021/12/21 17:53:06;;;;;;;10.10;9.10;;;2.70;99.60;;;;;;10499731;28;20216;-80
2021/12/21 17:58:08;;;;;;;9.13;8.23;;;2.70;99.90;;;;;;10479110;28;20271;-79
2021/12/21 18:03:10;;;;;;;11.03;8.77;;;2.70;99.90;;;;;;10498517;28;20204;-78
2021/12/21 18:08:14;;;;;;;9.40;8.00;;;2.70;99.90;;;;;;10501404;28;20231;-79
2021/12/21 18:13:16;;;;;;;10.50;9.47;;;2.70;99.90;;;;;;10483231;28;20218;-78
2021/12/21 18:18:18;;;;;;;10.87;9.57;;;2.60;99.90;;;;;;10500111;28;20213;-79
2021/12/21 18:23:22;;;;;;;11.30;10.30;;;2.60;99.40;;;;;;10500617;28;20258;-79
2021/12/21 18:28:24;;;;;;;11.90;9.90;;;2.60;99.60;;;;;;10501095;28;20565;-78
2021/12/21 18:33:26;;;;;;;11.10;10.10;;;2.50;99.30;;;;;;10501254;28;20219;-78
2021/12/21 18:38:36;;;;;;;10.70;9.67;;;2.50;99.90;;;;;;10485046;28;20248;-79
2021/12/21 18:43:38;;;;;;;12.03;10.13;;;2.50;99.80;;;;;;10502453;28;20238;-79
2021/12/21 18:48:42;;;;;;;12.13;10.93;;;2.40;99.50;;;;;;10503860;28;20279;-79
2021/12/21 18:53:47;;;;;;;14.27;12.90;;;2.40;99.90;;;;;;10502566;28;20220;-79
2021/12/21 18:58:52;;;;;;;14.73;13.13;;;2.30;99.40;;;;;;10497884;28;20295;-79
2021/12/21 19:03:54;;;;;;;15.73;14.00;;;2.20;99.70;;;;;;10501722;28;20188;-79
2021/12/21 19:08:59;;;;;;;16.30;14.20;;;2.20;99.80;;;;;;10497994;28;20209;-80
2021/12/21 19:14:02;;;;;;;19.27;16.07;;;2.20;99.30;;;;;;10506839;28;20225;-78
2021/12/21 19:19:05;;;;;;;18.90;16.90;;;2.10;99.30;;;;;;10491419;28;20303;-78
2021/12/21 19:24:10;;;;;;;17.20;15.40;;;2.10;99.30;;;;;;10506497;28;20189;-79
2021/12/21 19:29:12;;;;;;;26.57;23.60;;;2.00;99.00;;;;;;10506281;28;20208;-78
2021/12/21 19:34:15;;;;;;;22.23;19.90;;;1.90;99.20;;;;;;10504504;28;20235;-78
2021/12/21 19:39:18;;;;;;;20.83;18.63;;;1.90;98.80;;;;;;10501223;28;20291;-78
2021/12/21 19:44:20;;;;;;;24.73;22.20;;;1.80;99.20;;;;;;10505651;28;20196;-79
2021/12/21 19:49:23;;;;;;;19.63;17.73;;;1.70;98.90;;;;;;10506327;28;20204;-79
2021/12/21 19:54:26;;;;;;;18.80;16.87;;;1.70;99.10;;;;;;10505574;28;20212;-79
2021/12/21 19:59:29;;;;;;;17.60;15.97;;;1.70;99.30;;;;;;10483768;28;20224;-78
2021/12/21 20:04:31;;;;;;;21.77;19.67;;;1.60;99.00;;;;;;10506148;28;20189;-79
2021/12/21 20:09:35;;;;;;;17.47;15.97;;;1.50;99.20;;;;;;10503820;28;20369;-77
2021/12/21 20:14:39;;;;;;;17.50;15.70;;;1.40;99.00;;;;;;10501903;28;20217;-77
2021/12/21 20:19:45;;;;;;;17.53;15.83;;;1.40;98.70;;;;;;10502872;28;20221;-78
2021/12/21 20:24:50;;;;;;;16.73;15.20;;;1.40;98.70;;;;;;10500716;28;20200;-76
2021/12/21 20:29:52;;;;;;;16.57;15.07;;;1.30;98.90;;;;;;10497556;28;20213;-78
2021/12/21 20:34:54;;;;;;;16.80;15.20;;;1.30;98.40;;;;;;10498497;28;20212;-77
2021/12/21 20:39:58;;;;;;;16.90;15.37;;;1.20;98.70;;;;;;10496637;28;20247;-79
2021/12/21 20:45:01;;;;;;;17.47;15.67;;;1.20;98.60;;;;;;10479641;28;20232;-77
2021/12/21 20:50:05;;;;;;;17.03;15.30;;;1.20;99.20;;;;;;10499956;28;20209;-78
2021/12/21 20:55:09;;;;;;;17.57;15.73;;;1.20;98.60;;;;;;10501583;28;20213;-78
2021/12/21 21:00:12;;;;;;;17.80;15.83;;;1.10;98.90;;;;;;10502644;28;20216;-78
2021/12/21 21:05:16;;;;;;;17.47;15.77;;;1.10;98.80;;;;;;10501637;28;20231;-79
2021/12/21 21:10:20;;;;;;;17.63;15.93;;;1.10;98.60;;;;;;10496349;28;20219;-78
2021/12/21 21:15:23;;;;;;;19.23;16.50;;;1.10;98.70;;;;;;10478870;28;20248;-79
2021/12/21 21:20:25;;;;;;;17.03;15.47;;;1.00;98.80;;;;;;10496435;28;20219;-79
2021/12/21 21:25:29;;;;;;;17.27;15.57;;;1.00;99.00;;;;;;10496691;28;20539;-79
2021/12/21 21:30:31;;;;;;;19.40;17.40;;;1.00;98.40;;;;;;10496711;28;20702;-76
2021/12/21 21:35:33;;;;;;;18.80;17.10;;;1.00;99.00;;;;;;10496815;28;20231;-79
2021/12/21 21:40:37;;;;;;;17.60;15.97;;;1.00;99.10;;;;;;10502502;28;20202;-79
2021/12/21 21:45:39;;;;;;;21.10;18.80;;;1.00;99.20;;;;;;10503266;28;20660;-79
2021/12/21 21:50:41;;;;;;;19.37;17.53;;;1.00;98.30;;;;;;10487351;28;20569;-79
2021/12/21 21:55:44;;;;;;;18.30;16.43;;;1.00;99.30;;;;;;10503767;28;20212;-79
2021/12/21 22:00:46;;;;;;;20.37;18.10;;;1.00;99.60;;;;;;10501554;28;20296;-81
2021/12/21 22:05:49;;;;;;;19.10;17.30;;;1.00;99.60;;;;;;10484012;28;20191;-79
2021/12/21 22:10:52;;;;;;;18.77;16.87;;;1.00;98.90;;;;;;10499882;28;20565;-77
2021/12/21 22:15:55;;;;;;;18.20;16.43;;;1.00;98.60;;;;;;10499588;28;20220;-78
2021/12/21 22:21:01;;;;;;;18.50;16.73;;;1.00;98.20;;;;;;10499582;28;20576;-79
2021/12/21 22:26:06;;;;;;;17.80;16.10;;;0.90;98.10;;;;;;10498355;28;20204;-80
2021/12/21 22:31:10;;;;;;;19.57;17.63;;;0.80;99.20;;;;;;10498238;28;20216;-80
2021/12/21 22:36:13;;;;;;;20.13;18.17;;;0.80;98.80;;;;;;10500153;28;20335;-81
2021/12/21 22:41:19;;;;;;;18.87;17.07;;;0.90;99.10;;;;;;10502958;28;20196;-79
2021/12/21 22:46:21;;;;;;;18.33;16.63;;;0.90;98.60;;;;;;10506168;28;20212;-81
2021/12/21 22:51:25;;;;;;;18.30;16.60;;;0.80;98.60;;;;;;10506445;28;20541;-78
2021/12/21 22:56:28;;;;;;;18.70;17.00;;;0.80;98.60;;;;;;10505781;28;20227;-81
2021/12/21 23:01:31;;;;;;;19.10;17.40;;;0.70;98.90;;;;;;10506835;28;20197;-80
2021/12/21 23:06:33;;;;;;;19.63;17.83;;;0.70;98.30;;;;;;10508427;28;20208;-80
2021/12/21 23:11:36;;;;;;;21.10;19.00;;;0.60;99.00;;;;;;10507961;28;20203;-80
2021/12/21 23:16:38;;;;;;;22.83;20.53;;;0.60;99.70;;;;;;10506449;28;20564;-80
2021/12/21 23:21:40;;;;;;;20.37;17.90;;;0.70;99.20;;;;;;10506291;28;20188;-78
2021/12/21 23:26:47;;;;;;;24.00;21.53;;;0.70;99.60;;;;;;10505850;28;20211;-79
2021/12/21 23:31:50;;;;;;;23.80;21.50;;;0.70;99.60;;;;;;10504686;28;20195;-79
2021/12/21 23:36:53;;;;;;;21.33;19.20;;;0.80;99.90;;;;;;10505083;28;20220;-79
2021/12/21 23:41:57;;;;;;;27.47;24.70;;;0.90;99.60;;;;;;10505767;28;20199;-78
2021/12/21 23:46:59;;;;;;;21.67;19.47;;;0.90;99.60;;;;;;10505540;28;20213;-79
2021/12/21 23:52:01;;;;;;;20.60;18.57;;;0.90;99.60;;;;;;10504016;28;20188;-79
2021/12/21 23:57:05;;;;;;;18.80;17.10;;;0.90;99.10;;;;;;10503004;28;20323;-77
